Time;durP1;ratioP1;P1;durP2;ratioP2;P2;SDS_P1;SDS_P2;PMS_P1;PMS_P2;Temp;Humidity;BMP_temperature;BMP_pressure;BME280_temperature;BME280_humidity;BME280_pressure;Samples;Min_cycle;Max_cycle;Signal;HPM_P1;HPM_P2
2022/07/11 00:02:13;;;;;;;0.00;0.00;;;;;;;20.78;59.51;102539.09;5085686;28;20107;-79
2022/07/11 00:04:40;;;;;;;0.00;0.00;;;;;;;20.83;58.67;102529.03;5099951;28;20027;-79
2022/07/11 00:07:06;;;;;;;0.10;0.10;;;;;;;20.86;58.82;102531.63;5085039;28;20032;-79
2022/07/11 00:09:33;;;;;;;0.10;0.10;;;;;;;20.90;59.09;102538.66;5084562;28;20063;-79
2022/07/11 00:12:00;;;;;;;0.10;0.10;;;;;;;20.93;58.87;102537.66;5081495;28;20044;-79
2022/07/11 00:14:27;;;;;;;0.00;0.00;;;;;;;20.96;57.99;102526.75;5087735;28;20085;-78
2022/07/11 00:16:54;;;;;;;0.00;0.00;;;;;;;20.97;58.75;102528.53;5088091;28;20531;-79
2022/07/11 00:19:21;;;;;;;0.00;0.00;;;;;;;20.97;59.27;102517.75;5097717;28;20519;-79
2022/07/11 00:21:49;;;;;;;0.10;0.10;;;;;;;21.00;58.52;102529.28;5086940;28;20046;-79
2022/07/11 00:24:17;;;;;;;0.00;0.00;;;;;;;20.95;59.01;102525.88;5082508;28;20032;-79
2022/07/11 00:26:44;;;;;;;0.00;0.00;;;;;;;20.99;58.49;102532.03;5086734;28;20039;-79
2022/07/11 00:29:10;;;;;;;0.00;0.00;;;;;;;20.99;57.78;102532.91;5089182;28;20024;-79
2022/07/11 00:31:36;;;;;;;0.10;0.10;;;;;;;20.99;58.12;102526.66;5086340;28;20060;-78
2022/07/11 00:34:02;;;;;;;0.28;0.28;;;;;;;21.01;58.40;102524.78;5095423;28;20048;-78
2022/07/11 00:36:28;;;;;;;0.10;0.10;;;;;;;20.94;58.28;102529.50;5096003;28;20032;-78
2022/07/11 00:38:55;;;;;;;0.00;0.00;;;;;;;20.99;58.28;102527.53;5106332;28;20042;-79
2022/07/11 00:41:21;;;;;;;0.00;0.00;;;;;;;20.95;58.72;102528.59;5104946;28;20024;-79
2022/07/11 00:43:57;;;;;;;0.00;0.00;;;;;;;21.00;58.33;102518.50;5091372;28;20058;-79
2022/07/11 00:46:24;;;;;;;0.00;0.00;;;;;;;20.95;58.80;102519.63;5097848;28;20027;-78
2022/07/11 00:48:51;;;;;;;0.10;0.10;;;;;;;20.96;58.33;102516.88;5101433;28;20024;-79
2022/07/11 00:51:22;;;;;;;0.22;0.22;;;;;;;20.99;58.23;102522.13;5086827;28;20043;-79
2022/07/11 00:53:52;;;;;;;0.17;0.17;;;;;;;21.00;58.23;102513.13;5089647;28;20035;-79
2022/07/11 00:56:21;;;;;;;0.00;0.00;;;;;;;21.00;58.02;102521.19;5097153;28;20032;-79
2022/07/11 00:58:48;;;;;;;0.00;0.00;;;;;;;21.00;57.94;102517.66;5090792;28;20123;-78
2022/07/11 01:01:15;;;;;;;0.10;0.10;;;;;;;21.00;58.42;102514.94;5088334;28;20031;-79
2022/07/11 01:03:41;;;;;;;0.10;0.10;;;;;;;21.04;57.65;102523.81;5093848;28;20052;-79
2022/07/11 01:06:08;;;;;;;0.35;0.35;;;;;;;21.06;58.07;102519.22;5092023;28;20042;-79
2022/07/11 01:08:35;;;;;;;0.00;0.00;;;;;;;21.08;58.17;102522.75;5086094;28;20036;-79
2022/07/11 01:11:04;;;;;;;0.00;0.00;;;;;;;21.10;58.09;102518.19;5090557;28;20027;-79
2022/07/11 01:13:31;;;;;;;0.40;0.38;;;;;;;21.06;57.93;102521.91;5090999;28;20457;-79
2022/07/11 01:16:14;;;;;;;0.68;0.68;;;;;;;21.15;57.81;102526.97;5105556;28;20032;-79
2022/07/11 01:24:03;;;;;;;0.08;0.08;;;;;;;21.06;58.48;102525.50;5069193;28;20368;-79
2022/07/11 01:26:29;;;;;;;0.00;0.00;;;;;;;21.06;57.70;102521.91;5048119;28;20029;-79
2022/07/11 01:29:04;;;;;;;0.10;0.10;;;;;;;21.04;58.05;102523.81;5049240;28;20106;-78
2022/07/11 01:31:30;;;;;;;0.10;0.10;;;;;;;21.01;58.39;102531.06;5054113;28;20041;-78
2022/07/11 01:33:59;;;;;;;0.15;0.15;;;;;;;21.04;58.82;102537.28;5055757;28;20032;-79
2022/07/11 01:36:25;;;;;;;0.00;0.00;;;;;;;21.04;58.50;102538.13;5045740;28;20037;-79
2022/07/11 01:38:51;;;;;;;0.10;0.10;;;;;;;21.05;58.35;102530.91;5053376;28;20060;-78
2022/07/11 01:41:17;;;;;;;0.00;0.00;;;;;;;21.05;58.15;102529.13;5052083;28;20033;-78
2022/07/11 01:43:43;;;;;;;0.10;0.10;;;;;;;21.08;57.98;102536.22;5047359;28;20037;-79
2022/07/11 01:46:09;;;;;;;0.00;0.00;;;;;;;21.08;58.66;102530.81;5056504;28;20033;-79
2022/07/11 01:48:35;;;;;;;0.00;0.00;;;;;;;21.10;57.87;102534.34;5061080;28;20116;-79
2022/07/11 01:51:02;;;;;;;0.10;0.10;;;;;;;21.09;58.54;102537.97;5043179;28;20044;-79
2022/07/11 01:53:28;;;;;;;0.03;0.03;;;;;;;21.09;58.09;102533.44;5045412;28;20035;-78
2022/07/11 01:55:54;;;;;;;0.00;0.00;;;;;;;21.07;58.12;102526.38;5053664;28;20388;-78
2022/07/11 01:58:20;;;;;;;0.10;0.10;;;;;;;21.09;57.93;102521.81;5039388;28;20025;-79
2022/07/11 02:00:46;;;;;;;0.10;0.10;;;;;;;21.10;58.18;102526.25;5048085;28;20118;-78
2022/07/11 02:03:12;;;;;;;0.57;0.32;;;;;;;21.09;58.00;102524.50;5054119;28;20075;-78
2022/07/11 02:05:39;;;;;;;0.13;0.13;;;;;;;21.06;58.70;102513.81;5052201;28;20037;-78
2022/07/11 02:08:14;;;;;;;0.13;0.13;;;;;;;21.09;58.32;102513.72;5046039;28;20064;-79
2022/07/11 02:10:46;;;;;;;0.00;0.00;;;;;;;21.10;58.13;102518.19;5044618;28;20489;-78
2022/07/11 02:13:14;;;;;;;0.05;0.05;;;;;;;21.08;58.59;102514.66;5044909;28;20048;-79
2022/07/11 02:15:41;;;;;;;0.00;0.00;;;;;;;21.08;58.19;102509.25;5045222;28;20112;-79
2022/07/11 02:18:08;;;;;;;0.10;0.10;;;;;;;21.11;58.01;102511.81;5046682;28;20039;-79
2022/07/11 02:20:35;;;;;;;0.10;0.10;;;;;;;21.14;58.07;102511.72;5049311;28;20405;-78
2022/07/11 02:23:02;;;;;;;0.00;0.00;;;;;;;21.14;58.04;102515.28;5041135;28;20524;-77
2022/07/11 02:25:28;;;;;;;0.15;0.15;;;;;;;21.13;57.92;102515.34;5044736;28;20045;-79
2022/07/11 02:27:54;;;;;;;0.28;0.28;;;;;;;21.09;58.27;102513.72;5045791;28;20036;-79
2022/07/11 02:30:21;;;;;;;0.10;0.10;;;;;;;21.11;57.85;102510.03;5043691;28;20613;-79
2022/07/11 02:32:48;;;;;;;0.00;0.00;;;;;;;21.12;58.09;102509.09;5046716;28;20025;-79
2022/07/11 02:35:14;;;;;;;0.10;0.10;;;;;;;21.14;58.22;102506.34;5035130;28;20037;-79
2022/07/11 02:37:40;;;;;;;0.00;0.00;;;;;;;21.15;57.82;102502.72;5037117;28;20034;-79
2022/07/11 02:40:07;;;;;;;0.10;0.10;;;;;;;21.14;58.80;102506.34;5033888;28;20041;-79
2022/07/11 02:42:33;;;;;;;0.00;0.00;;;;;;;21.17;58.10;102503.50;5030013;28;20040;-80
2022/07/11 02:44:59;;;;;;;0.10;0.10;;;;;;;21.19;58.09;102506.16;5022479;28;20042;-80
2022/07/11 02:47:25;;;;;;;0.00;0.00;;;;;;;21.20;58.01;102505.19;5037979;28;20036;-79
2022/07/11 02:49:51;;;;;;;0.10;0.10;;;;;;;21.21;58.00;102506.97;5037204;28;20037;-79
2022/07/11 02:52:17;;;;;;;0.10;0.10;;;;;;;21.18;57.84;102510.66;5034345;28;20116;-81
2022/07/11 02:54:44;;;;;;;0.00;0.00;;;;;;;21.18;57.95;102510.66;5026617;28;20392;-81
2022/07/11 02:57:10;;;;;;;0.10;0.10;;;;;;;21.14;58.37;102507.19;5030305;28;20061;-81
2022/07/11 02:59:36;;;;;;;0.28;0.20;;;;;;;21.16;58.11;102515.25;5027858;28;20108;-81
2022/07/11 03:02:04;;;;;;;0.40;0.40;;;;;;;21.15;58.21;102510.78;5029379;28;20113;-81
2022/07/11 03:04:31;;;;;;;0.10;0.10;;;;;;;21.18;57.89;102505.28;5032693;28;20105;-81
2022/07/11 03:06:58;;;;;;;1.40;1.08;;;;;;;21.19;58.07;102501.63;5028831;28;20048;-81
2022/07/11 03:09:24;;;;;;;0.00;0.00;;;;;;;21.21;58.24;102494.38;5024481;28;20037;-81
2022/07/11 03:11:50;;;;;;;0.10;0.10;;;;;;;21.23;58.06;102494.31;5026799;28;20053;-81
2022/07/11 03:14:16;;;;;;;0.50;0.50;;;;;;;21.23;58.07;102508.66;5030094;28;20797;-81
2022/07/11 03:16:43;;;;;;;0.77;0.45;;;;;;;21.22;58.14;102512.31;5027759;28;20061;-81
2022/07/11 03:19:09;;;;;;;0.20;0.20;;;;;;;21.22;58.21;102512.31;5034463;28;20034;-81
2022/07/11 03:21:35;;;;;;;0.00;0.00;;;;;;;21.24;57.92;102513.13;5040165;28;20059;-81
2022/07/11 03:24:01;;;;;;;0.10;0.10;;;;;;;21.23;58.16;102511.34;5029375;28;20025;-81
2022/07/11 03:26:27;;;;;;;0.20;0.20;;;;;;;21.24;57.97;102514.94;5032891;28;20056;-81
2022/07/11 03:28:53;;;;;;;0.10;0.10;;;;;;;21.25;57.98;102511.31;5035362;28;20447;-81
2022/07/11 03:31:19;;;;;;;0.10;0.10;;;;;;;21.25;57.97;102514.03;5026704;28;20036;-81
2022/07/11 03:33:45;;;;;;;0.10;0.10;;;;;;;21.25;57.91;102514.88;5035608;28;20022;-81
2022/07/11 03:36:11;;;;;;;0.00;0.00;;;;;;;21.22;58.71;102511.44;5030607;28;20049;-81
2022/07/11 03:38:38;;;;;;;0.00;0.00;;;;;;;21.22;57.93;102517.72;5032497;28;20657;-81
2022/07/11 03:41:04;;;;;;;0.15;0.15;;;;;;;21.23;57.80;102521.28;5025745;28;20030;-81
2022/07/11 03:43:31;;;;;;;0.57;0.57;;;;;;;21.20;58.55;102521.38;5028029;28;20021;-81
2022/07/11 03:45:57;;;;;;;0.10;0.10;;;;;;;21.21;57.91;102515.94;5026860;28;20045;-81
2022/07/11 03:48:23;;;;;;;0.20;0.20;;;;;;;21.21;58.00;102510.56;5025427;28;20489;-81
2022/07/11 03:50:50;;;;;;;0.10;0.10;;;;;;;21.22;58.05;102506.94;5025802;28;20096;-81
2022/07/11 03:53:16;;;;;;;0.10;0.10;;;;;;;21.23;58.29;102511.34;5033035;28;20037;-81
2022/07/11 03:55:42;;;;;;;0.10;0.10;;;;;;;21.25;58.24;102514.88;5025865;28;20087;-81
2022/07/11 03:58:08;;;;;;;0.10;0.10;;;;;;;21.29;57.90;102519.22;5022529;28;20574;-81
2022/07/11 04:00:34;;;;;;;0.10;0.10;;;;;;;21.30;57.90;102514.72;5029138;28;20040;-80
2022/07/11 04:03:01;;;;;;;0.00;0.00;;;;;;;21.30;58.02;102512.88;5020411;28;20041;-81
2022/07/11 04:05:27;;;;;;;0.40;0.40;;;;;;;21.32;57.99;102515.50;5022461;28;20081;-81
2022/07/11 04:07:53;;;;;;;0.20;0.20;;;;;;;21.28;58.24;102517.47;5017132;28;20057;-81
2022/07/11 04:10:19;;;;;;;0.10;0.10;;;;;;;21.24;58.65;102518.50;5023198;28;20037;-81
2022/07/11 04:12:45;;;;;;;0.25;0.25;;;;;;;21.22;58.17;102517.72;5021934;28;20092;-81
2022/07/11 04:15:12;;;;;;;0.10;0.10;;;;;;;21.20;58.21;102514.19;5017826;28;20034;-81
2022/07/11 04:17:38;;;;;;;0.15;0.15;;;;;;;21.20;58.77;102518.69;5022568;28;20030;-81
2022/07/11 04:20:05;;;;;;;0.10;0.10;;;;;;;21.22;58.47;102511.44;5022177;28;20465;-81
2022/07/11 04:22:31;;;;;;;0.00;0.00;;;;;;;21.11;59.30;102511.81;5022614;28;20056;-81
2022/07/11 04:24:57;;;;;;;0.10;0.10;;;;;;;21.15;58.58;102513.50;5019830;28;20048;-81
2022/07/11 04:27:25;;;;;;;0.22;0.22;;;;;;;21.14;58.71;102509.03;5020734;28;20036;-81
2022/07/11 04:29:52;;;;;;;0.10;0.10;;;;;;;21.16;58.86;102515.25;5025606;28;20056;-81
2022/07/11 04:32:18;;;;;;;0.10;0.10;;;;;;;21.20;58.15;102514.19;5037959;28;20036;-81
2022/07/11 04:34:44;;;;;;;0.00;0.00;;;;;;;21.20;58.31;102514.19;5032918;28;20244;-81
2022/07/11 04:37:10;;;;;;;0.10;0.10;;;;;;;21.12;59.27;102511.78;5038265;28;20031;-81
2022/07/11 04:39:36;;;;;;;0.10;0.10;;;;;;;21.11;59.03;102509.13;5031789;28;20037;-81
2022/07/11 04:42:02;;;;;;;0.00;0.00;;;;;;;21.09;59.15;102502.94;5034256;28;20033;-81
2022/07/11 04:44:29;;;;;;;0.05;0.05;;;;;;;21.09;59.21;102502.94;5036897;28;20033;-81
2022/07/11 04:46:55;;;;;;;0.10;0.10;;;;;;;21.16;58.65;102504.47;5031122;28;20048;-81
2022/07/11 04:49:21;;;;;;;0.10;0.10;;;;;;;21.20;58.78;102510.59;5037655;28;20031;-81
2022/07/11 04:51:47;;;;;;;0.10;0.10;;;;;;;21.22;58.68;102506.94;5036024;28;20068;-81
2022/07/11 04:54:14;;;;;;;0.03;0.03;;;;;;;21.23;58.39;102513.19;5029529;28;20098;-81
2022/07/11 04:56:40;;;;;;;0.08;0.08;;;;;;;21.22;58.74;102506.94;5029257;28;20409;-82
2022/07/11 04:59:07;;;;;;;0.03;0.03;;;;;;;21.23;59.02;102511.34;5021606;28;20030;-81
2022/07/11 05:01:34;;;;;;;0.20;0.20;;;;;;;21.21;59.03;102506.97;5029018;28;20572;-79
2022/07/11 05:04:00;;;;;;;0.00;0.00;;;;;;;21.14;59.37;102509.91;5028076;28;20421;-79
2022/07/11 05:06:27;;;;;;;0.00;0.00;;;;;;;21.09;59.29;102516.41;5027818;28;20501;-79
2022/07/11 05:08:54;;;;;;;0.00;0.00;;;;;;;21.14;59.39;102519.81;5031939;28;20073;-79
2022/07/11 05:11:21;;;;;;;0.00;0.00;;;;;;;21.10;59.44;102520.88;5025517;28;20025;-79
2022/07/11 05:13:47;;;;;;;0.03;0.03;;;;;;;21.11;59.37;102526.19;5038323;28;20584;-80
2022/07/11 05:16:13;;;;;;;0.00;0.00;;;;;;;21.15;59.10;102526.97;5036522;28;20066;-79
2022/07/11 05:18:39;;;;;;;0.10;0.10;;;;;;;21.13;58.75;102524.34;5031971;28;20037;-79
2022/07/11 05:21:05;;;;;;;0.08;0.08;;;;;;;21.13;59.38;102529.72;5027219;28;20065;-79
2022/07/11 05:23:32;;;;;;;0.08;0.08;;;;;;;21.17;59.31;102533.16;5038687;28;20468;-79
2022/07/11 05:25:58;;;;;;;0.00;0.00;;;;;;;21.11;59.73;102542.38;5024678;28;20397;-79
2022/07/11 05:28:24;;;;;;;0.10;0.10;;;;;;;21.17;59.36;102541.25;5023596;28;20096;-79
2022/07/11 05:30:50;;;;;;;0.10;0.10;;;;;;;21.16;59.21;102545.75;5029668;28;20045;-79
2022/07/11 05:33:16;;;;;;;0.00;0.00;;;;;;;21.10;59.36;102550.53;5020302;28;20056;-79
2022/07/11 05:35:42;;;;;;;0.00;0.00;;;;;;;21.13;59.27;102550.38;5029062;28;20047;-79
2022/07/11 05:38:08;;;;;;;0.10;0.10;;;;;;;21.14;59.48;102549.47;5036662;28;20040;-79
2022/07/11 05:40:35;;;;;;;0.10;0.10;;;;;;;21.16;59.31;102553.00;5053946;28;20087;-79
2022/07/11 05:43:01;;;;;;;0.20;0.17;;;;;;;21.14;59.13;102557.53;5054150;28;20060;-79
2022/07/11 05:45:27;;;;;;;0.20;0.20;;;;;;;21.14;59.90;102557.53;5034704;28;20242;-81
2022/07/11 05:47:53;;;;;;;0.30;0.30;;;;;;;21.18;59.16;102556.47;5031155;28;20041;-81
2022/07/11 05:50:19;;;;;;;0.00;0.00;;;;;;;21.19;59.17;102555.56;5023446;28;20044;-80
2022/07/11 05:52:45;;;;;;;0.10;0.10;;;;;;;21.23;59.33;102564.41;5024980;28;20047;-81
2022/07/11 05:55:11;;;;;;;0.10;0.10;;;;;;;21.21;59.46;102569.88;5029911;28;20040;-80
2022/07/11 05:57:37;;;;;;;0.10;0.10;;;;;;;21.18;59.58;102567.25;5028274;28;20047;-81
2022/07/11 06:00:04;;;;;;;0.10;0.10;;;;;;;21.21;59.01;102556.38;5026428;28;20030;-81
2022/07/11 06:02:30;;;;;;;0.10;0.10;;;;;;;21.22;59.45;102560.84;5034525;28;20033;-81
2022/07/11 06:04:56;;;;;;;0.00;0.00;;;;;;;21.30;58.98;102568.63;5036397;28;20036;-81
2022/07/11 06:10:10;;;;;;;0.10;0.10;;;;;;;21.37;58.85;102558.47;5031505;28;20535;-80
2022/07/11 06:12:36;;;;;;;0.10;0.10;;;;;;;21.36;58.93;102562.09;5038261;28;20026;-80
2022/07/11 06:15:03;;;;;;;0.10;0.10;;;;;;;21.44;58.58;102554.63;5039439;28;20033;-80
2022/07/11 06:17:29;;;;;;;0.10;0.10;;;;;;;21.46;58.41;102552.75;5038972;28;20044;-80
2022/07/11 06:19:55;;;;;;;0.10;0.10;;;;;;;21.48;58.42;102545.47;5039439;28;20045;-80
2022/07/11 06:22:21;;;;;;;0.00;0.00;;;;;;;21.51;58.61;102548.06;5037653;28;20067;-80
2022/07/11 06:24:47;;;;;;;0.00;0.00;;;;;;;21.48;58.49;102542.75;5038611;28;20112;-80
2022/07/11 06:27:13;;;;;;;0.10;0.10;;;;;;;21.55;58.06;102536.19;5038979;28;20036;-80
2022/07/11 06:29:40;;;;;;;0.00;0.00;;;;;;;21.58;58.12;102538.81;5038635;28;20084;-80
2022/07/11 06:32:06;;;;;;;0.10;0.10;;;;;;;21.62;57.87;102539.56;5037292;28;20029;-80
2022/07/11 06:34:33;;;;;;;0.10;0.10;;;;;;;21.71;57.78;102541.91;5037739;28;20044;-80
2022/07/11 06:37:01;;;;;;;0.00;0.00;;;;;;;21.76;57.76;102539.88;5038696;28;20392;-80
2022/07/11 06:39:27;;;;;;;0.10;0.10;;;;;;;21.85;57.68;102544.03;5035564;28;20397;-80
2022/07/11 06:41:53;;;;;;;0.15;0.15;;;;;;;21.88;57.72;102538.53;5036533;28;20037;-80
2022/07/11 06:44:20;;;;;;;1.00;0.75;;;;;;;21.95;57.56;102540.00;5039724;28;20041;-80
2022/07/11 06:46:46;;;;;;;0.20;0.20;;;;;;;22.00;57.42;102544.34;5036765;28;20034;-80
2022/07/11 06:49:13;;;;;;;0.00;0.00;;;;;;;22.01;57.21;102540.69;5037238;28;20075;-80
2022/07/11 06:51:39;;;;;;;0.00;0.00;;;;;;;22.02;57.41;102532.56;5036818;28;20040;-81
2022/07/11 06:54:05;;;;;;;0.55;0.55;;;;;;;22.08;57.37;102535.00;5031988;28;20099;-80
2022/07/11 06:56:32;;;;;;;0.10;0.10;;;;;;;22.12;57.42;102541.16;5034718;28;20104;-80
2022/07/11 06:58:58;;;;;;;0.10;0.10;;;;;;;22.19;57.48;102548.03;5039298;28;20500;-80
2022/07/11 07:01:24;;;;;;;0.75;0.75;;;;;;;22.20;57.22;102548.91;5038501;28;20033;-80
2022/07/11 07:03:51;;;;;;;0.10;0.10;;;;;;;22.27;56.98;102556.69;5040019;28;20612;-80
2022/07/11 07:06:17;;;;;;;0.00;0.00;;;;;;;22.27;56.99;102545.88;5036586;28;20053;-81
2022/07/11 07:08:43;;;;;;;0.52;0.30;;;;;;;22.30;56.85;102545.75;5036285;28;20042;-80
2022/07/11 07:11:09;;;;;;;0.93;0.38;;;;;;;22.34;56.68;102548.31;5035962;28;20030;-80
2022/07/11 07:13:35;;;;;;;0.10;0.10;;;;;;;22.36;56.49;102551.84;5037424;28;20117;-81
2022/07/11 07:16:01;;;;;;;0.08;0.08;;;;;;;22.37;56.69;102548.19;5037282;28;20401;-80
2022/07/11 07:18:27;;;;;;;0.13;0.13;;;;;;;22.38;56.60;102558.06;5037569;28;20029;-80
2022/07/11 07:20:53;;;;;;;0.08;0.08;;;;;;;22.35;56.63;102558.19;5035423;28;20041;-81
2022/07/11 07:23:20;;;;;;;0.10;0.10;;;;;;;22.42;56.64;102559.72;5034096;28;20378;-80
2022/07/11 07:25:46;;;;;;;0.20;0.20;;;;;;;22.42;56.76;102559.72;5032215;28;20445;-80
2022/07/11 07:28:12;;;;;;;0.40;0.40;;;;;;;22.41;56.88;102557.97;5035591;28;20032;-80
2022/07/11 07:30:38;;;;;;;1.15;1.08;;;;;;;22.47;57.05;102560.41;5034654;28;20033;-80
2022/07/11 07:33:05;;;;;;;0.10;0.10;;;;;;;22.52;56.86;102552.97;5035150;28;20405;-80
2022/07/11 07:35:31;;;;;;;0.40;0.40;;;;;;;22.56;56.70;102557.28;5037408;28;20086;-79
2022/07/11 07:37:57;;;;;;;0.10;0.10;;;;;;;22.60;56.42;102564.34;5035572;28;20033;-79
2022/07/11 07:40:23;;;;;;;0.30;0.30;;;;;;;22.59;56.39;102556.28;5039120;28;20040;-79
2022/07/11 07:42:49;;;;;;;0.10;0.10;;;;;;;22.54;56.18;102559.19;5038994;28;20018;-79
2022/07/11 07:45:15;;;;;;;0.00;0.00;;;;;;;22.58;56.19;102560.81;5040622;28;20505;-79
2022/07/11 07:47:42;;;;;;;3.42;0.43;;;;;;;22.65;56.39;102565.94;5041018;28;20046;-80
2022/07/11 07:50:09;;;;;;;0.38;0.38;;;;;;;22.61;56.23;102571.47;5037902;28;20037;-79
2022/07/11 07:52:35;;;;;;;0.38;0.38;;;;;;;22.57;56.12;102569.84;5039491;28;20045;-79
2022/07/11 07:55:01;;;;;;;0.00;0.00;;;;;;;22.60;56.14;102569.72;5039712;28;20044;-78
2022/07/11 07:57:27;;;;;;;0.43;0.43;;;;;;;22.55;56.06;102560.94;5040771;28;20041;-79
2022/07/11 08:01:34;;;;;;;0.55;0.38;;;;;;;22.55;56.17;102566.31;5041655;28;20025;-80
2022/07/11 08:02:39;;;;;;;0.20;0.20;;;;;;;22.55;56.10;102573.56;5038854;28;20037;-79
2022/07/11 08:05:06;;;;;;;0.60;0.55;;;;;;;22.58;56.11;102571.63;5040805;28;20033;-78
2022/07/11 08:07:33;;;;;;;0.50;0.50;;;;;;;22.65;56.05;102574.03;5035119;28;20050;-79
2022/07/11 08:09:59;;;;;;;2.10;1.58;;;;;;;22.70;56.07;102569.31;5039626;28;20060;-79
2022/07/11 08:12:27;;;;;;;0.13;0.13;;;;;;;22.77;55.93;102573.50;5038142;28;20056;-80
2022/07/11 08:14:54;;;;;;;0.20;0.20;;;;;;;22.83;55.64;102575.94;5039526;28;20072;-79
2022/07/11 08:17:20;;;;;;;0.47;0.45;;;;;;;22.87;55.32;102579.38;5040376;28;20030;-79
2022/07/11 08:19:46;;;;;;;0.10;0.10;;;;;;;22.96;55.17;102578.09;5038346;28;20117;-79
2022/07/11 08:22:12;;;;;;;0.65;0.65;;;;;;;23.02;55.28;102580.53;5037842;28;20025;-79
2022/07/11 08:24:38;;;;;;;0.10;0.10;;;;;;;23.07;55.06;102578.50;5040239;28;20044;-78
2022/07/11 08:27:04;;;;;;;0.30;0.30;;;;;;;23.06;55.01;102584.84;5040611;22;20046;-80
2022/07/11 08:29:30;;;;;;;0.38;0.38;;;;;;;23.09;54.89;102579.28;5020259;28;20093;-80
2022/07/11 08:31:56;;;;;;;0.73;0.73;;;;;;;23.10;54.92;102578.34;5018142;28;20421;-81
2022/07/11 08:34:22;;;;;;;1.63;0.75;;;;;;;23.16;55.05;102572.69;5021049;28;20029;-81
2022/07/11 08:36:50;;;;;;;0.55;0.55;;;;;;;23.24;55.00;102575.91;5012188;28;20401;-81
2022/07/11 08:39:17;;;;;;;0.00;0.00;;;;;;;23.32;54.69;102572.84;5020464;28;20029;-80
2022/07/11 08:41:44;;;;;;;0.10;0.10;;;;;;;23.37;54.59;102570.81;5017620;28;20072;-81
2022/07/11 08:44:12;;;;;;;0.32;0.32;;;;;;;23.51;54.33;102566.56;5018169;28;20381;-81
2022/07/11 08:46:41;;;;;;;0.45;0.45;;;;;;;23.56;53.46;102572.66;5018238;28;20040;-81
2022/07/11 08:49:07;;;;;;;0.45;0.45;;;;;;;23.59;54.04;102570.66;5018019;28;20049;-81
2022/07/11 08:51:37;;;;;;;0.20;0.20;;;;;;;23.61;53.46;102572.44;5015999;28;20056;-81
2022/07/11 08:54:04;;;;;;;0.08;0.08;;;;;;;23.65;53.09;102568.63;5017377;28;20034;-80
2022/07/11 08:56:31;;;;;;;0.03;0.03;;;;;;;23.77;53.59;102570.72;5017661;28;20030;-80
2022/07/11 08:58:59;;;;;;;0.13;0.13;;;;;;;23.82;52.92;102559.69;5016928;28;20033;-80
2022/07/11 09:01:29;;;;;;;0.10;0.10;;;;;;;23.90;52.83;102557.47;5015460;28;20034;-80
2022/07/11 09:03:56;;;;;;;0.03;0.03;;;;;;;24.00;52.74;102566.03;5016401;28;20034;-81
2022/07/11 09:06:23;;;;;;;0.38;0.38;;;;;;;24.11;52.33;102565.50;5017293;28;20072;-81
2022/07/11 09:08:49;;;;;;;0.10;0.10;;;;;;;24.20;52.59;102565.94;5016846;28;20456;-80
2022/07/11 09:11:16;;;;;;;0.55;0.55;;;;;;;24.32;52.38;102556.28;5016978;28;20037;-81
2022/07/11 09:13:42;;;;;;;0.17;0.17;;;;;;;24.46;52.59;102561.03;5015867;28;20028;-81
2022/07/11 09:16:09;;;;;;;0.10;0.10;;;;;;;24.58;52.34;102564.91;5014409;28;20041;-81
2022/07/11 09:18:39;;;;;;;0.10;0.10;;;;;;;24.73;52.31;102557.84;5017219;28;20040;-81
2022/07/11 09:26:49;;;;;;;0.85;0.85;;;;;;;25.13;51.09;102562.94;5015117;28;20365;-81
2022/07/11 09:29:21;;;;;;;0.20;0.20;;;;;;;25.32;50.90;102562.81;5014950;28;20044;-80
2022/07/11 09:31:48;;;;;;;0.50;0.50;;;;;;;25.50;50.96;102569.94;5014091;28;20033;-81
2022/07/11 09:34:17;;;;;;;0.00;0.00;;;;;;;25.60;49.18;102566.75;5016040;28;20109;-81
2022/07/11 09:36:48;;;;;;;0.20;0.20;;;;;;;25.72;49.80;102563.31;5015652;28;20037;-81
2022/07/11 09:39:19;;;;;;;0.10;0.10;;;;;;;25.72;48.55;102563.31;5015915;28;20025;-82
2022/07/11 09:41:47;;;;;;;0.10;0.10;;;;;;;25.67;48.49;102557.25;5014747;28;20030;-81
2022/07/11 09:44:22;;;;;;;0.90;0.90;;;;;;;25.68;49.94;102550.88;4989496;28;20354;-82
2022/07/11 09:46:51;;;;;;;0.10;0.10;;;;;;;25.60;49.75;102558.59;5018620;28;20045;-82
2022/07/11 09:49:31;;;;;;;1.10;1.10;;;;;;;25.58;49.35;102560.50;5019603;28;20481;-81
2022/07/11 09:55:01;;;;;;;0.20;0.20;;;;;;;25.57;48.77;102559.66;5112410;27;20362;-82
2022/07/11 10:00:10;;;;;;;0.08;0.08;;;;;;;25.55;49.28;102566.13;5150315;27;20410;-80
2022/07/11 10:02:36;;;;;;;0.08;0.08;;;;;;;25.60;49.12;102564.03;5132649;28;20034;-80
2022/07/11 10:05:03;;;;;;;0.47;0.47;;;;;;;25.65;49.13;102572.78;5133146;28;20364;-80
2022/07/11 10:07:30;;;;;;;0.08;0.08;;;;;;;25.71;49.21;102566.09;5133960;28;20023;-81
2022/07/11 10:09:59;;;;;;;0.90;0.90;;;;;;;25.80;49.35;102563.75;5134777;28;20098;-81
2022/07/11 10:12:27;;;;;;;0.00;0.00;;;;;;;25.82;48.35;102564.53;5134722;28;20077;-81
2022/07/11 10:14:55;;;;;;;0.17;0.17;;;;;;;25.96;48.82;102560.16;5132619;28;20027;-80
2022/07/11 10:20:17;;;;;;;0.10;0.10;;;;;;;26.35;47.61;102557.91;5072431;28;20982;-81
2022/07/11 10:28:29;;;;;;;0.40;0.40;;;;;;;26.58;46.44;102553.78;5106491;27;1171853;-82
2022/07/11 10:30:59;;;;;;;0.30;0.20;;;;;;;26.62;46.61;102544.50;5125720;28;20063;-82
2022/07/11 10:33:27;;;;;;;0.10;0.10;;;;;;;26.72;45.94;102548.38;5132889;28;20031;-82
2022/07/11 10:35:54;;;;;;;0.10;0.10;;;;;;;26.87;47.00;102548.44;5132760;27;20516;-81
2022/07/11 10:38:21;;;;;;;0.45;0.45;;;;;;;26.92;45.53;102554.47;5134221;27;20035;-81
2022/07/11 10:46:11;;;;;;;0.20;0.20;;;;;;;27.18;45.26;102555.53;5112287;27;20388;-81
2022/07/11 10:57:12;;;;;;;0.05;0.05;;;;;;;26.75;45.54;102558.22;5116142;27;20359;-82
2022/07/11 11:00:00;;;;;;;0.10;0.10;;;;;;;26.87;44.96;102562.91;5095890;28;20036;-81
2022/07/11 11:02:27;;;;;;;0.20;0.20;;;;;;;26.83;44.48;102560.47;5088818;28;20088;-81
2022/07/11 11:04:59;;;;;;;0.10;0.10;;;;;;;26.81;45.25;102557.84;5092890;28;20021;-81
2022/07/11 11:26:21;;;;;;;0.10;0.10;;;;;;;26.58;44.66;102556.50;5106722;27;1201923;-81
2022/07/11 11:29:06;;;;;;;0.10;0.10;;;;;;;26.67;45.34;102558.66;5113278;28;20619;-80
2022/07/11 11:31:33;;;;;;;0.30;0.30;;;;;;;26.73;44.58;102550.13;5112510;28;20067;-83
2022/07/11 11:34:03;;;;;;;0.10;0.10;;;;;;;26.95;44.91;102546.09;5096999;28;20028;-82
2022/07/11 11:36:30;;;;;;;0.75;0.75;;;;;;;27.18;45.34;102552.81;5094553;28;20111;-82
2022/07/11 11:38:57;;;;;;;0.17;0.17;;;;;;;27.34;43.65;102539.09;5099946;28;20039;-83
2022/07/11 11:44:10;;;;;;;0.10;0.10;;;;;;;27.74;44.17;102535.66;5120012;27;20384;-82
2022/07/11 11:46:36;;;;;;;0.20;0.20;;;;;;;27.82;42.45;102532.41;5118412;28;20035;-83
2022/07/11 11:49:04;;;;;;;0.20;0.20;;;;;;;27.94;42.32;102531.56;5112243;28;20051;-83
2022/07/11 11:51:31;;;;;;;0.17;0.17;;;;;;;28.11;41.96;102527.72;5111157;28;20035;-84
2022/07/11 11:54:01;;;;;;;0.40;0.20;;;;;;;28.22;42.23;102527.00;5118841;27;20040;-83
2022/07/11 11:56:32;;;;;;;0.20;0.20;;;;;;;28.28;41.55;102523.84;5123176;27;20091;-83
2022/07/11 11:59:03;;;;;;;0.20;0.20;;;;;;;28.37;41.75;102523.19;5100036;28;20055;-84
2022/07/11 12:01:31;;;;;;;0.30;0.30;;;;;;;28.44;41.72;102528.22;5098321;28;20092;-84
2022/07/11 12:04:00;;;;;;;0.10;0.10;;;;;;;28.46;40.69;102526.25;5105041;27;20028;-84
2022/07/11 12:06:29;;;;;;;0.10;0.10;;;;;;;28.52;41.24;102531.28;5141505;27;20043;-85
2022/07/11 12:09:07;;;;;;;0.25;0.25;;;;;;;28.52;41.20;102532.16;5131998;27;20028;-83
2022/07/11 12:11:35;;;;;;;0.10;0.10;;;;;;;28.43;41.83;102532.81;5130396;28;20067;-83
2022/07/11 12:14:04;;;;;;;0.10;0.10;;;;;;;28.31;41.44;102534.50;5139406;27;20030;-82
2022/07/11 12:16:41;;;;;;;0.10;0.10;;;;;;;28.17;42.39;102534.63;5132017;27;20110;-82
2022/07/11 12:19:09;;;;;;;0.10;0.10;;;;;;;27.99;42.90;102539.41;5118659;28;20023;-84
2022/07/11 12:21:36;;;;;;;0.10;0.10;;;;;;;27.84;43.21;102530.44;5119917;28;20035;-84
2022/07/11 12:24:08;;;;;;;0.10;0.10;;;;;;;27.77;43.92;102528.13;5131097;28;20035;-83
2022/07/11 12:26:37;;;;;;;0.10;0.10;;;;;;;27.87;44.04;102528.38;5136061;27;20031;-83
2022/07/11 12:29:07;;;;;;;0.10;0.10;;;;;;;28.02;42.35;102531.91;5127907;28;20030;-83